Weather at Mc Entire's Lazy V Ranch Airport

Public forecast

Using degrees Fahrenheit for public forecast. Weather courtesy of forecast.io.

Closest aviation weather report (METAR) to Mc Entire's Lazy V Ranch Airport

Closest report is Big Spring Mc Mahon-Wrinkle Airport, 33.0 nm (61.1 km) NW. Retrieved 2021/07/27 23:35 UTC (0 seconds ago):

KBPG 272335Z AUTO 09004KT 10SM CLR 36/13 A3002 RMK AO2 T03610130

Closest aviation forecast (TAF) to Mc Entire's Lazy V Ranch Airport

Closest forecast is San Angelo Regional Mathis Field, 40.3 nm (74.7 km) SE. Retrieved 2021/07/27 18:33 UTC (5 hours ago):

TAF KSJT 271731Z 2718/2818 11008KT P6SM FEW250 FM280300 09006KT P6SM BKN250